sensor_id;sensor_type;location;lat;lon;timestamp;P1;durP1;ratioP1;P2;durP2;ratioP2
35294;SDS011;21413;48.032;7.764;2023-07-02T00:01:16;2.43;;;2.40;;
35294;SDS011;21413;48.032;7.764;2023-07-02T00:03:41;3.50;;;3.23;;
35294;SDS011;21413;48.032;7.764;2023-07-02T00:06:07;2.20;;;2.20;;
35294;SDS011;21413;48.032;7.764;2023-07-02T00:08:33;4.30;;;3.20;;
35294;SDS011;21413;48.032;7.764;2023-07-02T00:10:59;2.83;;;2.73;;
35294;SDS011;21413;48.032;7.764;2023-07-02T00:13:25;2.93;;;2.83;;
35294;SDS011;21413;48.032;7.764;2023-07-02T00:15:51;2.83;;;2.83;;
35294;SDS011;21413;48.032;7.764;2023-07-02T00:18:17;3.10;;;2.90;;
35294;SDS011;21413;48.032;7.764;2023-07-02T00:20:43;3.03;;;2.97;;
35294;SDS011;21413;48.032;7.764;2023-07-02T00:23:11;3.40;;;3.20;;
35294;SDS011;21413;48.032;7.764;2023-07-02T00:25:37;3.40;;;3.10;;
35294;SDS011;21413;48.032;7.764;2023-07-02T00:28:06;3.00;;;2.90;;
35294;SDS011;21413;48.032;7.764;2023-07-02T00:30:34;3.10;;;3.10;;
35294;SDS011;21413;48.032;7.764;2023-07-02T00:33:02;3.67;;;3.37;;
35294;SDS011;21413;48.032;7.764;2023-07-02T00:35:28;3.43;;;3.13;;
35294;SDS011;21413;48.032;7.764;2023-07-02T00:37:54;2.97;;;2.87;;
35294;SDS011;21413;48.032;7.764;2023-07-02T00:40:20;3.13;;;3.03;;
35294;SDS011;21413;48.032;7.764;2023-07-02T00:42:46;3.47;;;3.20;;
35294;SDS011;21413;48.032;7.764;2023-07-02T00:45:12;3.33;;;3.23;;
35294;SDS011;21413;48.032;7.764;2023-07-02T00:47:41;3.67;;;3.43;;
35294;SDS011;21413;48.032;7.764;2023-07-02T00:50:07;3.57;;;3.37;;
35294;SDS011;21413;48.032;7.764;2023-07-02T00:52:34;3.57;;;3.37;;
35294;SDS011;21413;48.032;7.764;2023-07-02T00:55:00;3.30;;;3.20;;
35294;SDS011;21413;48.032;7.764;2023-07-02T00:57:26;4.23;;;3.70;;
35294;SDS011;21413;48.032;7.764;2023-07-02T00:59:54;3.27;;;3.23;;
35294;SDS011;21413;48.032;7.764;2023-07-02T01:02:20;3.20;;;3.17;;
35294;SDS011;21413;48.032;7.764;2023-07-02T01:04:50;3.30;;;3.20;;
35294;SDS011;21413;48.032;7.764;2023-07-02T01:07:22;3.57;;;3.37;;
35294;SDS011;21413;48.032;7.764;2023-07-02T01:09:48;3.50;;;3.37;;
35294;SDS011;21413;48.032;7.764;2023-07-02T01:12:14;3.43;;;3.33;;
35294;SDS011;21413;48.032;7.764;2023-07-02T01:14:43;3.60;;;3.50;;
35294;SDS011;21413;48.032;7.764;2023-07-02T01:17:09;3.60;;;3.50;;
35294;SDS011;21413;48.032;7.764;2023-07-02T01:19:44;3.73;;;3.63;;
35294;SDS011;21413;48.032;7.764;2023-07-02T01:22:16;4.07;;;3.80;;
35294;SDS011;21413;48.032;7.764;2023-07-02T01:24:42;3.97;;;3.20;;
35294;SDS011;21413;48.032;7.764;2023-07-02T01:27:10;4.73;;;3.90;;
35294;SDS011;21413;48.032;7.764;2023-07-02T01:29:39;2.97;;;2.97;;
35294;SDS011;21413;48.032;7.764;2023-07-02T01:32:06;4.40;;;3.90;;
35294;SDS011;21413;48.032;7.764;2023-07-02T01:34:33;4.07;;;3.73;;
35294;SDS011;21413;48.032;7.764;2023-07-02T01:36:59;5.10;;;3.80;;
35294;SDS011;21413;48.032;7.764;2023-07-02T01:39:25;3.80;;;3.60;;
35294;SDS011;21413;48.032;7.764;2023-07-02T01:41:51;3.50;;;3.40;;
35294;SDS011;21413;48.032;7.764;2023-07-02T01:44:18;3.70;;;3.47;;
35294;SDS011;21413;48.032;7.764;2023-07-02T01:46:46;4.50;;;4.20;;
35294;SDS011;21413;48.032;7.764;2023-07-02T01:49:17;31.63;;;21.93;;
35294;SDS011;21413;48.032;7.764;2023-07-02T01:51:49;118.20;;;66.47;;
35294;SDS011;21413;48.032;7.764;2023-07-02T01:54:15;4.50;;;4.00;;
35294;SDS011;21413;48.032;7.764;2023-07-02T01:56:46;20.37;;;12.80;;
35294;SDS011;21413;48.032;7.764;2023-07-02T01:59:12;4.90;;;3.80;;
35294;SDS011;21413;48.032;7.764;2023-07-02T02:01:38;10.50;;;3.90;;
35294;SDS011;21413;48.032;7.764;2023-07-02T02:04:07;4.00;;;3.80;;
35294;SDS011;21413;48.032;7.764;2023-07-02T02:06:34;5.47;;;3.93;;
35294;SDS011;21413;48.032;7.764;2023-07-02T02:09:00;3.97;;;3.60;;
35294;SDS011;21413;48.032;7.764;2023-07-02T02:11:29;3.93;;;3.73;;
35294;SDS011;21413;48.032;7.764;2023-07-02T02:13:57;3.83;;;3.53;;
35294;SDS011;21413;48.032;7.764;2023-07-02T02:16:27;4.87;;;4.50;;
35294;SDS011;21413;48.032;7.764;2023-07-02T02:18:53;4.37;;;4.13;;
35294;SDS011;21413;48.032;7.764;2023-07-02T02:21:19;4.40;;;4.00;;
35294;SDS011;21413;48.032;7.764;2023-07-02T02:23:45;6.77;;;4.87;;
35294;SDS011;21413;48.032;7.764;2023-07-02T02:26:12;6.60;;;3.90;;
35294;SDS011;21413;48.032;7.764;2023-07-02T02:28:38;3.80;;;3.70;;
35294;SDS011;21413;48.032;7.764;2023-07-02T02:31:04;4.20;;;3.93;;
35294;SDS011;21413;48.032;7.764;2023-07-02T02:33:30;5.73;;;4.60;;
35294;SDS011;21413;48.032;7.764;2023-07-02T02:35:56;4.53;;;4.33;;
35294;SDS011;21413;48.032;7.764;2023-07-02T02:38:22;4.07;;;3.87;;
35294;SDS011;21413;48.032;7.764;2023-07-02T02:40:48;4.83;;;4.50;;
35294;SDS011;21413;48.032;7.764;2023-07-02T02:43:13;4.77;;;4.37;;
35294;SDS011;21413;48.032;7.764;2023-07-02T02:45:44;4.57;;;4.37;;
35294;SDS011;21413;48.032;7.764;2023-07-02T02:48:10;4.10;;;3.90;;
35294;SDS011;21413;48.032;7.764;2023-07-02T02:50:38;5.23;;;4.20;;
35294;SDS011;21413;48.032;7.764;2023-07-02T02:53:06;7.90;;;4.27;;
35294;SDS011;21413;48.032;7.764;2023-07-02T02:55:32;7.30;;;4.80;;
35294;SDS011;21413;48.032;7.764;2023-07-02T02:57:58;5.07;;;4.60;;
35294;SDS011;21413;48.032;7.764;2023-07-02T03:00:24;6.77;;;4.50;;
35294;SDS011;21413;48.032;7.764;2023-07-02T03:02:50;5.70;;;5.30;;
35294;SDS011;21413;48.032;7.764;2023-07-02T03:05:16;5.70;;;4.80;;
35294;SDS011;21413;48.032;7.764;2023-07-02T03:07:42;5.27;;;4.83;;
35294;SDS011;21413;48.032;7.764;2023-07-02T03:10:08;5.73;;;4.93;;
35294;SDS011;21413;48.032;7.764;2023-07-02T03:12:37;5.63;;;5.13;;
35294;SDS011;21413;48.032;7.764;2023-07-02T03:15:05;4.83;;;4.43;;
35294;SDS011;21413;48.032;7.764;2023-07-02T03:17:34;8.10;;;4.97;;
35294;SDS011;21413;48.032;7.764;2023-07-02T03:20:00;6.30;;;5.70;;
35294;SDS011;21413;48.032;7.764;2023-07-02T03:22:27;6.23;;;5.40;;
35294;SDS011;21413;48.032;7.764;2023-07-02T03:24:53;5.00;;;4.70;;
35294;SDS011;21413;48.032;7.764;2023-07-02T03:27:19;5.33;;;4.90;;
35294;SDS011;21413;48.032;7.764;2023-07-02T03:29:45;9.80;;;4.50;;
35294;SDS011;21413;48.032;7.764;2023-07-02T03:32:10;6.20;;;4.60;;
35294;SDS011;21413;48.032;7.764;2023-07-02T03:34:36;10.90;;;5.30;;
35294;SDS011;21413;48.032;7.764;2023-07-02T03:37:02;8.33;;;5.20;;
35294;SDS011;21413;48.032;7.764;2023-07-02T03:39:32;7.50;;;5.33;;
35294;SDS011;21413;48.032;7.764;2023-07-02T03:41:58;7.80;;;5.50;;
35294;SDS011;21413;48.032;7.764;2023-07-02T03:44:24;6.47;;;5.30;;
35294;SDS011;21413;48.032;7.764;2023-07-02T03:46:49;5.43;;;5.10;;
35294;SDS011;21413;48.032;7.764;2023-07-02T03:49:15;5.77;;;5.37;;
35294;SDS011;21413;48.032;7.764;2023-07-02T03:51:41;6.03;;;5.33;;
35294;SDS011;21413;48.032;7.764;2023-07-02T03:54:07;7.03;;;6.00;;
35294;SDS011;21413;48.032;7.764;2023-07-02T03:56:35;8.10;;;5.70;;
35294;SDS011;21413;48.032;7.764;2023-07-02T03:59:04;7.33;;;5.50;;
35294;SDS011;21413;48.032;7.764;2023-07-02T04:01:30;6.90;;;5.53;;
35294;SDS011;21413;48.032;7.764;2023-07-02T04:03:56;7.97;;;5.70;;
35294;SDS011;21413;48.032;7.764;2023-07-02T04:06:22;9.47;;;6.67;;
35294;SDS011;21413;48.032;7.764;2023-07-02T04:08:48;8.93;;;5.93;;
35294;SDS011;21413;48.032;7.764;2023-07-02T04:11:16;12.63;;;6.70;;
35294;SDS011;21413;48.032;7.764;2023-07-02T04:13:42;15.67;;;7.40;;
35294;SDS011;21413;48.032;7.764;2023-07-02T04:16:08;13.23;;;7.70;;
35294;SDS011;21413;48.032;7.764;2023-07-02T04:18:36;12.83;;;7.70;;
35294;SDS011;21413;48.032;7.764;2023-07-02T04:21:02;11.57;;;8.63;;
35294;SDS011;21413;48.032;7.764;2023-07-02T04:23:29;9.60;;;8.60;;
35294;SDS011;21413;48.032;7.764;2023-07-02T04:25:55;9.90;;;9.00;;
35294;SDS011;21413;48.032;7.764;2023-07-02T04:28:21;11.10;;;9.07;;
35294;SDS011;21413;48.032;7.764;2023-07-02T04:30:47;15.23;;;11.30;;
35294;SDS011;21413;48.032;7.764;2023-07-02T04:33:15;12.77;;;10.10;;
35294;SDS011;21413;48.032;7.764;2023-07-02T04:35:41;21.73;;;12.03;;
35294;SDS011;21413;48.032;7.764;2023-07-02T04:38:09;15.43;;;11.00;;
35294;SDS011;21413;48.032;7.764;2023-07-02T04:40:35;14.60;;;10.57;;
35294;SDS011;21413;48.032;7.764;2023-07-02T04:43:01;15.80;;;12.47;;
35294;SDS011;21413;48.032;7.764;2023-07-02T04:45:28;28.47;;;16.80;;
35294;SDS011;21413;48.032;7.764;2023-07-02T04:48:01;19.40;;;12.07;;
35294;SDS011;21413;48.032;7.764;2023-07-02T04:50:29;18.60;;;12.77;;
35294;SDS011;21413;48.032;7.764;2023-07-02T04:52:55;26.53;;;14.27;;
35294;SDS011;21413;48.032;7.764;2023-07-02T04:55:21;19.87;;;13.20;;
35294;SDS011;21413;48.032;7.764;2023-07-02T04:57:47;24.43;;;16.70;;
35294;SDS011;21413;48.032;7.764;2023-07-02T05:00:16;21.80;;;13.63;;
35294;SDS011;21413;48.032;7.764;2023-07-02T05:02:42;20.77;;;13.80;;
35294;SDS011;21413;48.032;7.764;2023-07-02T05:05:10;21.10;;;14.30;;
35294;SDS011;21413;48.032;7.764;2023-07-02T05:07:36;18.90;;;14.03;;
35294;SDS011;21413;48.032;7.764;2023-07-02T05:10:05;21.50;;;13.60;;
35294;SDS011;21413;48.032;7.764;2023-07-02T05:12:31;24.63;;;15.10;;
35294;SDS011;21413;48.032;7.764;2023-07-02T05:14:57;24.30;;;15.33;;
35294;SDS011;21413;48.032;7.764;2023-07-02T05:17:23;21.43;;;15.40;;
35294;SDS011;21413;48.032;7.764;2023-07-02T05:19:51;26.60;;;16.30;;
35294;SDS011;21413;48.032;7.764;2023-07-02T05:22:17;27.97;;;17.70;;
35294;SDS011;21413;48.032;7.764;2023-07-02T05:24:43;25.93;;;16.00;;
35294;SDS011;21413;48.032;7.764;2023-07-02T05:27:09;23.13;;;15.90;;
35294;SDS011;21413;48.032;7.764;2023-07-02T05:29:35;32.50;;;17.73;;
35294;SDS011;21413;48.032;7.764;2023-07-02T05:32:04;27.47;;;17.30;;
35294;SDS011;21413;48.032;7.764;2023-07-02T05:34:30;24.37;;;16.83;;
35294;SDS011;21413;48.032;7.764;2023-07-02T05:36:56;27.83;;;17.60;;
35294;SDS011;21413;48.032;7.764;2023-07-02T05:39:21;28.93;;;16.73;;
35294;SDS011;21413;48.032;7.764;2023-07-02T05:41:48;27.80;;;17.80;;
35294;SDS011;21413;48.032;7.764;2023-07-02T05:44:14;38.63;;;19.20;;
35294;SDS011;21413;48.032;7.764;2023-07-02T05:46:40;26.00;;;18.10;;
35294;SDS011;21413;48.032;7.764;2023-07-02T05:49:06;32.37;;;18.10;;
35294;SDS011;21413;48.032;7.764;2023-07-02T05:51:34;29.30;;;17.60;;
35294;SDS011;21413;48.032;7.764;2023-07-02T05:54:03;33.63;;;18.13;;
35294;SDS011;21413;48.032;7.764;2023-07-02T05:56:29;36.23;;;19.63;;
35294;SDS011;21413;48.032;7.764;2023-07-02T05:58:55;35.60;;;20.50;;
35294;SDS011;21413;48.032;7.764;2023-07-02T06:01:23;30.70;;;19.00;;
35294;SDS011;21413;48.032;7.764;2023-07-02T06:03:52;27.80;;;17.83;;
35294;SDS011;21413;48.032;7.764;2023-07-02T06:06:18;27.13;;;18.70;;
35294;SDS011;21413;48.032;7.764;2023-07-02T06:08:44;30.40;;;17.53;;
35294;SDS011;21413;48.032;7.764;2023-07-02T06:11:12;31.57;;;18.67;;
35294;SDS011;21413;48.032;7.764;2023-07-02T06:13:38;34.77;;;20.53;;
35294;SDS011;21413;48.032;7.764;2023-07-02T06:16:04;26.60;;;19.50;;
35294;SDS011;21413;48.032;7.764;2023-07-02T06:18:30;30.43;;;19.80;;
35294;SDS011;21413;48.032;7.764;2023-07-02T06:20:56;34.83;;;19.60;;
35294;SDS011;21413;48.032;7.764;2023-07-02T06:23:22;37.87;;;19.73;;
35294;SDS011;21413;48.032;7.764;2023-07-02T06:25:48;34.00;;;20.40;;
35294;SDS011;21413;48.032;7.764;2023-07-02T06:28:16;31.80;;;20.10;;
35294;SDS011;21413;48.032;7.764;2023-07-02T06:30:42;37.60;;;20.73;;
35294;SDS011;21413;48.032;7.764;2023-07-02T06:33:11;38.73;;;21.07;;
35294;SDS011;21413;48.032;7.764;2023-07-02T06:35:37;33.60;;;20.40;;
35294;SDS011;21413;48.032;7.764;2023-07-02T06:38:05;31.87;;;20.17;;
35294;SDS011;21413;48.032;7.764;2023-07-02T06:40:31;38.03;;;20.53;;
35294;SDS011;21413;48.032;7.764;2023-07-02T06:42:57;32.37;;;20.47;;
35294;SDS011;21413;48.032;7.764;2023-07-02T06:45:23;31.63;;;20.50;;
35294;SDS011;21413;48.032;7.764;2023-07-02T06:47:49;30.70;;;20.50;;
35294;SDS011;21413;48.032;7.764;2023-07-02T06:50:15;37.33;;;21.80;;
35294;SDS011;21413;48.032;7.764;2023-07-02T06:52:41;39.23;;;22.23;;
35294;SDS011;21413;48.032;7.764;2023-07-02T06:55:07;36.53;;;20.77;;
35294;SDS011;21413;48.032;7.764;2023-07-02T06:57:34;36.27;;;21.57;;
35294;SDS011;21413;48.032;7.764;2023-07-02T06:59:59;38.80;;;21.90;;
35294;SDS011;21413;48.032;7.764;2023-07-02T07:02:26;34.07;;;21.17;;
35294;SDS011;21413;48.032;7.764;2023-07-02T07:04:55;36.57;;;20.63;;
35294;SDS011;21413;48.032;7.764;2023-07-02T07:07:21;32.73;;;21.87;;
35294;SDS011;21413;48.032;7.764;2023-07-02T07:09:47;33.23;;;19.70;;
35294;SDS011;21413;48.032;7.764;2023-07-02T07:12:13;35.00;;;20.57;;
35294;SDS011;21413;48.032;7.764;2023-07-02T07:14:41;31.70;;;21.00;;
35294;SDS011;21413;48.032;7.764;2023-07-02T07:17:08;31.37;;;20.73;;
35294;SDS011;21413;48.032;7.764;2023-07-02T07:19:34;31.80;;;20.50;;
35294;SDS011;21413;48.032;7.764;2023-07-02T07:22:00;41.33;;;21.00;;
35294;SDS011;21413;48.032;7.764;2023-07-02T07:24:26;34.33;;;22.17;;
35294;SDS011;21413;48.032;7.764;2023-07-02T07:26:52;40.70;;;20.70;;
35294;SDS011;21413;48.032;7.764;2023-07-02T07:29:18;38.30;;;22.03;;
35294;SDS011;21413;48.032;7.764;2023-07-02T07:31:44;40.10;;;21.40;;
35294;SDS011;21413;48.032;7.764;2023-07-02T07:34:11;35.83;;;21.37;;
35294;SDS011;21413;48.032;7.764;2023-07-02T07:36:37;37.57;;;21.53;;
35294;SDS011;21413;48.032;7.764;2023-07-02T07:39:03;36.23;;;22.07;;
35294;SDS011;21413;48.032;7.764;2023-07-02T07:41:29;42.60;;;23.10;;
35294;SDS011;21413;48.032;7.764;2023-07-02T07:43:55;37.87;;;23.00;;
35294;SDS011;21413;48.032;7.764;2023-07-02T07:46:21;39.70;;;24.43;;
35294;SDS011;21413;48.032;7.764;2023-07-02T07:48:49;42.17;;;23.83;;
35294;SDS011;21413;48.032;7.764;2023-07-02T07:51:17;43.33;;;23.90;;
35294;SDS011;21413;48.032;7.764;2023-07-02T07:53:43;37.37;;;23.27;;
35294;SDS011;21413;48.032;7.764;2023-07-02T07:56:09;40.87;;;24.03;;
35294;SDS011;21413;48.032;7.764;2023-07-02T07:58:35;34.87;;;23.47;;
35294;SDS011;21413;48.032;7.764;2023-07-02T08:01:01;43.33;;;24.97;;
35294;SDS011;21413;48.032;7.764;2023-07-02T08:03:27;38.57;;;24.40;;
35294;SDS011;21413;48.032;7.764;2023-07-02T08:05:53;49.70;;;24.87;;
35294;SDS011;21413;48.032;7.764;2023-07-02T08:08:19;38.60;;;24.67;;
35294;SDS011;21413;48.032;7.764;2023-07-02T08:10:45;41.67;;;26.30;;
35294;SDS011;21413;48.032;7.764;2023-07-02T08:13:12;44.53;;;25.23;;
35294;SDS011;21413;48.032;7.764;2023-07-02T08:15:40;45.23;;;24.17;;
35294;SDS011;21413;48.032;7.764;2023-07-02T08:18:06;39.27;;;24.83;;
35294;SDS011;21413;48.032;7.764;2023-07-02T08:20:33;39.50;;;24.40;;
35294;SDS011;21413;48.032;7.764;2023-07-02T08:23:02;39.03;;;25.53;;
35294;SDS011;21413;48.032;7.764;2023-07-02T08:25:28;47.80;;;25.50;;
35294;SDS011;21413;48.032;7.764;2023-07-02T08:27:54;38.23;;;25.33;;
35294;SDS011;21413;48.032;7.764;2023-07-02T08:30:20;39.67;;;24.33;;
35294;SDS011;21413;48.032;7.764;2023-07-02T08:32:46;43.10;;;26.90;;
35294;SDS011;21413;48.032;7.764;2023-07-02T08:35:12;39.77;;;25.40;;
35294;SDS011;21413;48.032;7.764;2023-07-02T08:37:40;38.40;;;26.87;;
35294;SDS011;21413;48.032;7.764;2023-07-02T08:40:14;41.70;;;25.13;;
35294;SDS011;21413;48.032;7.764;2023-07-02T08:42:41;34.80;;;23.70;;
35294;SDS011;21413;48.032;7.764;2023-07-02T08:45:07;38.60;;;26.47;;
35294;SDS011;21413;48.032;7.764;2023-07-02T08:47:36;43.87;;;26.10;;
35294;SDS011;21413;48.032;7.764;2023-07-02T08:50:04;40.00;;;25.97;;
35294;SDS011;21413;48.032;7.764;2023-07-02T08:52:33;47.27;;;25.57;;
35294;SDS011;21413;48.032;7.764;2023-07-02T08:55:01;47.10;;;25.17;;
35294;SDS011;21413;48.032;7.764;2023-07-02T08:57:27;46.20;;;26.10;;
35294;SDS011;21413;48.032;7.764;2023-07-02T08:59:56;36.90;;;26.20;;
35294;SDS011;21413;48.032;7.764;2023-07-02T09:02:31;47.20;;;26.63;;
35294;SDS011;21413;48.032;7.764;2023-07-02T09:05:01;42.97;;;26.00;;
35294;SDS011;21413;48.032;7.764;2023-07-02T09:07:29;45.23;;;26.00;;
35294;SDS011;21413;48.032;7.764;2023-07-02T09:09:55;35.37;;;23.10;;
35294;SDS011;21413;48.032;7.764;2023-07-02T09:12:25;35.13;;;23.13;;
35294;SDS011;21413;48.032;7.764;2023-07-02T09:14:56;41.60;;;22.97;;
35294;SDS011;21413;48.032;7.764;2023-07-02T09:17:29;40.90;;;24.00;;
35294;SDS011;21413;48.032;7.764;2023-07-02T09:19:56;36.30;;;23.60;;
35294;SDS011;21413;48.032;7.764;2023-07-02T09:22:23;45.43;;;26.03;;
35294;SDS011;21413;48.032;7.764;2023-07-02T09:24:53;43.37;;;25.00;;
35294;SDS011;21413;48.032;7.764;2023-07-02T09:27:19;38.30;;;25.30;;
35294;SDS011;21413;48.032;7.764;2023-07-02T09:29:49;43.27;;;25.40;;
35294;SDS011;21413;48.032;7.764;2023-07-02T09:32:23;39.20;;;24.60;;
35294;SDS011;21413;48.032;7.764;2023-07-02T09:34:53;40.80;;;26.40;;
35294;SDS011;21413;48.032;7.764;2023-07-02T09:37:20;39.77;;;23.67;;
35294;SDS011;21413;48.032;7.764;2023-07-02T09:39:47;38.37;;;23.30;;
35294;SDS011;21413;48.032;7.764;2023-07-02T09:45:01;44.00;;;26.87;;
35294;SDS011;21413;48.032;7.764;2023-07-02T09:47:32;40.63;;;26.10;;
35294;SDS011;21413;48.032;7.764;2023-07-02T09:50:04;41.83;;;25.77;;
35294;SDS011;21413;48.032;7.764;2023-07-02T09:52:30;35.63;;;24.60;;
35294;SDS011;21413;48.032;7.764;2023-07-02T09:54:57;41.07;;;25.63;;
35294;SDS011;21413;48.032;7.764;2023-07-02T09:57:23;37.83;;;24.73;;
35294;SDS011;21413;48.032;7.764;2023-07-02T09:59:49;43.87;;;25.90;;
35294;SDS011;21413;48.032;7.764;2023-07-02T10:02:17;42.67;;;25.03;;
35294;SDS011;21413;48.032;7.764;2023-07-02T10:04:44;43.33;;;25.10;;
35294;SDS011;21413;48.032;7.764;2023-07-02T10:07:10;41.23;;;25.07;;
35294;SDS011;21413;48.032;7.764;2023-07-02T10:09:38;39.03;;;25.00;;
35294;SDS011;21413;48.032;7.764;2023-07-02T10:14:46;38.00;;;24.00;;
35294;SDS011;21413;48.032;7.764;2023-07-02T10:19:53;39.70;;;23.73;;
35294;SDS011;21413;48.032;7.764;2023-07-02T10:22:22;35.37;;;24.07;;
35294;SDS011;21413;48.032;7.764;2023-07-02T10:24:55;36.13;;;24.07;;
35294;SDS011;21413;48.032;7.764;2023-07-02T10:27:35;40.23;;;24.73;;
35294;SDS011;21413;48.032;7.764;2023-07-02T10:30:01;37.63;;;24.70;;
35294;SDS011;21413;48.032;7.764;2023-07-02T10:32:28;37.37;;;24.20;;
35294;SDS011;21413;48.032;7.764;2023-07-02T10:34:54;40.13;;;25.03;;
35294;SDS011;21413;48.032;7.764;2023-07-02T10:37:21;37.47;;;25.03;;
35294;SDS011;21413;48.032;7.764;2023-07-02T10:39:46;35.50;;;23.27;;
35294;SDS011;21413;48.032;7.764;2023-07-02T10:42:12;32.70;;;21.90;;
35294;SDS011;21413;48.032;7.764;2023-07-02T10:44:51;39.90;;;23.20;;
35294;SDS011;21413;48.032;7.764;2023-07-02T10:47:18;36.27;;;23.70;;
35294;SDS011;21413;48.032;7.764;2023-07-02T10:49:44;36.40;;;21.87;;
35294;SDS011;21413;48.032;7.764;2023-07-02T10:52:13;36.80;;;21.40;;
35294;SDS011;21413;48.032;7.764;2023-07-02T10:57:06;40.73;;;23.00;;
35294;SDS011;21413;48.032;7.764;2023-07-02T10:59:32;41.23;;;24.97;;
35294;SDS011;21413;48.032;7.764;2023-07-02T11:02:00;31.97;;;22.80;;
35294;SDS011;21413;48.032;7.764;2023-07-02T11:04:28;36.50;;;22.67;;
35294;SDS011;21413;48.032;7.764;2023-07-02T11:06:54;29.43;;;21.10;;
35294;SDS011;21413;48.032;7.764;2023-07-02T11:09:20;36.27;;;22.63;;
35294;SDS011;21413;48.032;7.764;2023-07-02T11:11:57;38.53;;;23.27;;
35294;SDS011;21413;48.032;7.764;2023-07-02T11:14:41;31.37;;;21.20;;
35294;SDS011;21413;48.032;7.764;2023-07-02T11:17:07;29.10;;;21.73;;
35294;SDS011;21413;48.032;7.764;2023-07-02T11:19:33;35.27;;;22.20;;
35294;SDS011;21413;48.032;7.764;2023-07-02T11:22:00;37.23;;;22.37;;
35294;SDS011;21413;48.032;7.764;2023-07-02T11:26:56;29.50;;;19.77;;
35294;SDS011;21413;48.032;7.764;2023-07-02T11:29:22;30.73;;;19.90;;
35294;SDS011;21413;48.032;7.764;2023-07-02T11:31:48;34.23;;;21.87;;
35294;SDS011;21413;48.032;7.764;2023-07-02T11:34:20;33.00;;;20.53;;
35294;SDS011;21413;48.032;7.764;2023-07-02T11:36:46;29.63;;;20.07;;
35294;SDS011;21413;48.032;7.764;2023-07-02T11:39:15;31.33;;;20.53;;
35294;SDS011;21413;48.032;7.764;2023-07-02T11:41:44;32.90;;;22.80;;
35294;SDS011;21413;48.032;7.764;2023-07-02T11:44:11;27.33;;;20.57;;
35294;SDS011;21413;48.032;7.764;2023-07-02T11:46:37;33.13;;;18.93;;
35294;SDS011;21413;48.032;7.764;2023-07-02T11:49:03;30.30;;;20.17;;
35294;SDS011;21413;48.032;7.764;2023-07-02T11:51:32;28.63;;;20.60;;
35294;SDS011;21413;48.032;7.764;2023-07-02T11:53:58;31.33;;;20.23;;
35294;SDS011;21413;48.032;7.764;2023-07-02T11:56:24;31.40;;;21.13;;
35294;SDS011;21413;48.032;7.764;2023-07-02T11:58:50;30.90;;;20.83;;
35294;SDS011;21413;48.032;7.764;2023-07-02T12:01:16;29.97;;;19.47;;
35294;SDS011;21413;48.032;7.764;2023-07-02T12:03:43;26.40;;;18.90;;
35294;SDS011;21413;48.032;7.764;2023-07-02T12:06:10;30.73;;;20.43;;
35294;SDS011;21413;48.032;7.764;2023-07-02T12:08:36;29.07;;;19.43;;
35294;SDS011;21413;48.032;7.764;2023-07-02T12:11:02;39.63;;;20.60;;
35294;SDS011;21413;48.032;7.764;2023-07-02T12:13:27;31.67;;;20.30;;
35294;SDS011;21413;48.032;7.764;2023-07-02T12:15:53;30.87;;;20.43;;
35294;SDS011;21413;48.032;7.764;2023-07-02T12:18:19;26.17;;;19.30;;
35294;SDS011;21413;48.032;7.764;2023-07-02T12:20:45;30.70;;;20.83;;
35294;SDS011;21413;48.032;7.764;2023-07-02T12:23:11;25.73;;;19.63;;
35294;SDS011;21413;48.032;7.764;2023-07-02T12:25:38;29.50;;;18.60;;
35294;SDS011;21413;48.032;7.764;2023-07-02T12:28:04;26.20;;;19.20;;
35294;SDS011;21413;48.032;7.764;2023-07-02T12:30:30;25.73;;;19.00;;
35294;SDS011;21413;48.032;7.764;2023-07-02T12:32:56;25.40;;;19.07;;
35294;SDS011;21413;48.032;7.764;2023-07-02T12:35:22;30.00;;;19.67;;
35294;SDS011;21413;48.032;7.764;2023-07-02T12:37:52;21.27;;;17.63;;
35294;SDS011;21413;48.032;7.764;2023-07-02T12:40:19;29.77;;;17.57;;
35294;SDS011;21413;48.032;7.764;2023-07-02T12:42:45;24.60;;;17.37;;
35294;SDS011;21413;48.032;7.764;2023-07-02T12:45:11;20.80;;;16.20;;
35294;SDS011;21413;48.032;7.764;2023-07-02T12:47:38;22.17;;;15.20;;
35294;SDS011;21413;48.032;7.764;2023-07-02T12:50:04;18.80;;;16.00;;
35294;SDS011;21413;48.032;7.764;2023-07-02T12:52:30;23.37;;;16.77;;
35294;SDS011;21413;48.032;7.764;2023-07-02T12:54:56;18.20;;;15.77;;
35294;SDS011;21413;48.032;7.764;2023-07-02T12:57:22;17.97;;;14.93;;
35294;SDS011;21413;48.032;7.764;2023-07-02T12:59:48;19.33;;;15.40;;
35294;SDS011;21413;48.032;7.764;2023-07-02T13:02:14;19.03;;;15.80;;
35294;SDS011;21413;48.032;7.764;2023-07-02T13:04:40;23.77;;;16.47;;
35294;SDS011;21413;48.032;7.764;2023-07-02T13:07:06;18.87;;;15.63;;
35294;SDS011;21413;48.032;7.764;2023-07-02T13:09:32;20.13;;;16.97;;
35294;SDS011;21413;48.032;7.764;2023-07-02T13:12:00;21.00;;;16.17;;
35294;SDS011;21413;48.032;7.764;2023-07-02T13:14:26;24.53;;;17.53;;
35294;SDS011;21413;48.032;7.764;2023-07-02T13:16:52;24.67;;;17.87;;
35294;SDS011;21413;48.032;7.764;2023-07-02T13:19:18;21.77;;;17.70;;
35294;SDS011;21413;48.032;7.764;2023-07-02T13:21:44;31.40;;;18.00;;
35294;SDS011;21413;48.032;7.764;2023-07-02T13:24:10;27.83;;;20.37;;
35294;SDS011;21413;48.032;7.764;2023-07-02T13:26:37;30.13;;;19.00;;
35294;SDS011;21413;48.032;7.764;2023-07-02T13:29:03;28.33;;;20.63;;
35294;SDS011;21413;48.032;7.764;2023-07-02T13:31:29;25.50;;;18.60;;
35294;SDS011;21413;48.032;7.764;2023-07-02T13:33:55;26.73;;;20.93;;
35294;SDS011;21413;48.032;7.764;2023-07-02T13:36:21;27.87;;;19.60;;
35294;SDS011;21413;48.032;7.764;2023-07-02T13:38:47;29.47;;;20.57;;
35294;SDS011;21413;48.032;7.764;2023-07-02T13:41:13;25.87;;;20.03;;
35294;SDS011;21413;48.032;7.764;2023-07-02T13:43:39;32.50;;;21.23;;
35294;SDS011;21413;48.032;7.764;2023-07-02T13:46:05;25.40;;;19.23;;
35294;SDS011;21413;48.032;7.764;2023-07-02T13:48:33;27.23;;;19.33;;
35294;SDS011;21413;48.032;7.764;2023-07-02T13:51:02;33.97;;;20.17;;
35294;SDS011;21413;48.032;7.764;2023-07-02T13:53:28;26.50;;;19.50;;
35294;SDS011;21413;48.032;7.764;2023-07-02T13:55:54;28.63;;;19.23;;
35294;SDS011;21413;48.032;7.764;2023-07-02T13:58:20;25.13;;;18.50;;
35294;SDS011;21413;48.032;7.764;2023-07-02T14:00:46;23.33;;;19.30;;
35294;SDS011;21413;48.032;7.764;2023-07-02T14:03:14;28.83;;;21.20;;
35294;SDS011;21413;48.032;7.764;2023-07-02T14:05:40;28.20;;;19.90;;
35294;SDS011;21413;48.032;7.764;2023-07-02T14:08:06;32.10;;;21.33;;
35294;SDS011;21413;48.032;7.764;2023-07-02T14:10:37;28.23;;;18.70;;
35294;SDS011;21413;48.032;7.764;2023-07-02T14:13:03;26.83;;;19.50;;
35294;SDS011;21413;48.032;7.764;2023-07-02T14:15:30;24.90;;;17.83;;
35294;SDS011;21413;48.032;7.764;2023-07-02T14:17:56;31.43;;;19.77;;
35294;SDS011;21413;48.032;7.764;2023-07-02T14:20:22;22.07;;;17.20;;
35294;SDS011;21413;48.032;7.764;2023-07-02T14:22:48;30.90;;;16.73;;
35294;SDS011;21413;48.032;7.764;2023-07-02T14:25:16;25.03;;;17.50;;
35294;SDS011;21413;48.032;7.764;2023-07-02T14:27:42;22.93;;;16.63;;
35294;SDS011;21413;48.032;7.764;2023-07-02T14:30:08;26.10;;;17.43;;
35294;SDS011;21413;48.032;7.764;2023-07-02T14:32:34;23.97;;;16.40;;
35294;SDS011;21413;48.032;7.764;2023-07-02T14:35:01;20.97;;;17.00;;
35294;SDS011;21413;48.032;7.764;2023-07-02T14:37:27;22.40;;;16.23;;
35294;SDS011;21413;48.032;7.764;2023-07-02T14:39:53;23.30;;;17.50;;